Odyssea Defender — WDE7022 — position and weather

sailwx.info

Track history (hours):
 
Tides and Currents Weather Stations Pressure Air Temp Water Temp Dewpoint Dewpoint Depression Visibility Wind Speed Wind Dir Waves Ship Positions

Odyssea Defender

Owner: ODYSSEA VESSEL, INC, BERWICK, LA. More information available from US FCC via Universal Licensing System and Coast Guard Vessel Documentation Center.

Last reported at 2017-May-29 09:30 UTC. Time now 2017-May-29 09:51 UTC.
Position N 29°49' W 093°20'.

Length 60 m; draft 3.3 m.

Type: Ship. MMSI: 367387930.

Date/timePositionNaut miles runAvg speedWind from/ knotsBaromVisibWave heightAir tempDewpointWater temp
2017-May-29 09:30N 29°49' W 093°20'0 0.7
2017-May-29 08:58N 29°49' W 093°21'3 5.6
2017-May-29 08:30N 29°47' W 093°21'1 2.5
2017-May-29 08:01N 29°48' W 093°21'1 2.8
2017-May-29 07:28N 29°49' W 093°20'0 0.0
2017-May-29 06:59N 29°49' W 093°20'0 0.0
2017-May-29 04:53N 29°49' W 093°20'0 0.0
2017-May-29 04:29N 29°49' W 093°20'0 0.0
2017-May-29 04:00N 29°49' W 093°20'0 0.0
2017-May-29 03:30N 29°49' W 093°20'0 0.0
2017-May-29 03:00N 29°49' W 093°20'0 0.0
2017-May-29 02:30N 29°49' W 093°20'0 0.0
2017-May-29 02:00N 29°49' W 093°20'0 0.0
2017-May-29 01:29N 29°49' W 093°20'0 0.0
2017-May-29 01:01N 29°49' W 093°20'0 0.0
2017-May-29 00:30N 29°49' W 093°20'0 0.0
2017-May-29 00:01N 29°49' W 093°20'0 0.0
2017-May-28 23:30N 29°49' W 093°20'0 0.0
2017-May-28 23:00N 29°49' W 093°20'0 0.2
2017-May-28 22:30N 29°49' W 093°20'0 0.0
2017-May-28 22:01N 29°49' W 093°20'0 0.0
2017-May-28 21:31N 29°49' W 093°20'0 0.0
2017-May-28 21:00N 29°49' W 093°20'0 0.0
2017-May-28 20:30N 29°49' W 093°20'0 0.5
2017-May-28 19:36N 29°49' W 093°21'1 5.3
2017-May-28 19:31N 29°49' W 093°21'3 5.3
2017-May-28 19:00N 29°46' W 093°21'9 0.2
2017-May-27 07:08N 29°37' W 093°23'3 0.1
2017-May-26 10:17N 29°40' W 093°22'0 0.8
2017-May-26 09:52N 29°40' W 093°23'2 4.9
2017-May-26 09:29N 29°38' W 093°23'2 3.9
2017-May-26 08:59N 29°36' W 093°23'2 3.1
2017-May-26 08:21N 29°38' W 093°23'2 3.5
2017-May-26 07:55N 29°39' W 093°22'1 1.8
2017-May-26 07:28N 29°40' W 093°23'3 1.2
2017-May-26 05:13N 29°37' W 093°23'1 1.9
2017-May-26 04:45N 29°38' W 093°23'1 2.7
2017-May-26 04:26N 29°37' W 093°23'0 0.0
2017-May-26 03:43N 29°37' W 093°23'0 0.0
2017-May-26 03:28N 29°37' W 093°23'  
2017-May-23 11:50N 29°45' W 093°21'2 7.2
2017-May-23 11:30N 29°47' W 093°21'2 3.3
2017-May-23 10:57N 29°49' W 093°20'0 0.0
2017-May-23 10:30N 29°49' W 093°20'0 0.0
2017-May-23 10:00N 29°49' W 093°20'0 0.0
2017-May-23 09:30N 29°49' W 093°20'0 0.0
2017-May-23 08:56N 29°49' W 093°20'0 0.0
2017-May-23 08:30N 29°49' W 093°20'0 0.0
2017-May-23 08:00N 29°49' W 093°20'0 0.0
2017-May-23 07:31N 29°49' W 093°20'0 0.0
2017-May-23 07:00N 29°49' W 093°20'0 0.0
2017-May-23 06:30N 29°49' W 093°20'0 0.0
2017-May-23 06:00N 29°49' W 093°20'0 0.0
2017-May-23 05:26N 29°49' W 093°20'0 0.0
2017-May-23 05:00N 29°49' W 093°20'0 0.0
2017-May-23 04:29N 29°49' W 093°20'0 0.0
2017-May-23 03:59N 29°49' W 093°20'0 0.0
2017-May-23 03:31N 29°49' W 093°20'0 0.1
2017-May-23 03:00N 29°49' W 093°20'0 0.0
2017-May-23 02:17N 29°49' W 093°20'0 0.0
2017-May-23 01:56N 29°49' W 093°20'0 0.0
2017-May-23 01:26N 29°49' W 093°20'0 0.0
2017-May-23 00:20N 29°49' W 093°20'0 0.0
2017-May-23 00:00N 29°49' W 093°20'0 0.1
2017-May-22 22:58N 29°49' W 093°20'0 0.0
2017-May-22 21:48N 29°49' W 093°20'0 0.0
2017-May-22 21:30N 29°49' W 093°20'0 0.0
2017-May-22 19:56N 29°49' W 093°20'0 0.0
2017-May-22 19:27N 29°49' W 093°20'0 0.0
2017-May-22 18:46N 29°49' W 093°20'0 0.0
2017-May-22 18:29N 29°49' W 093°20'0 0.0
2017-May-22 17:54N 29°49' W 093°20'0 0.0
2017-May-22 17:23N 29°49' W 093°20'0 0.0
2017-May-22 16:50N 29°49' W 093°20'0 0.0
2017-May-22 16:31N 29°49' W 093°20'0 0.0
2017-May-22 16:00N 29°49' W 093°20'0 0.0
2017-May-22 15:22N 29°49' W 093°20'0 0.0
2017-May-22 14:53N 29°49' W 093°20'0 0.0
2017-May-22 14:30N 29°49' W 093°20'0 0.0
2017-May-22 13:28N 29°49' W 093°20'0 0.0
2017-May-22 12:57N 29°49' W 093°20'0 0.0
2017-May-22 12:30N 29°49' W 093°20'0 0.0
2017-May-22 12:00N 29°49' W 093°20'0 0.0
2017-May-22 11:27N 29°49' W 093°20'0 0.0
2017-May-22 11:00N 29°49' W 093°20'0 0.0
2017-May-22 10:25N 29°49' W 093°20'0 0.0
2017-May-22 07:05N 29°49' W 093°20'0 0.0
2017-May-22 07:00N 29°49' W 093°20'0 0.0
2017-May-22 06:30N 29°49' W 093°20'0 0.0
2017-May-22 05:59N 29°49' W 093°20'0 0.0
2017-May-22 05:20N 29°49' W 093°20'0 0.0
2017-May-22 04:59N 29°49' W 093°20'0 0.0
2017-May-22 04:28N 29°49' W 093°20'0 0.0
2017-May-22 04:00N 29°49' W 093°20'0 0.0
2017-May-22 03:25N 29°49' W 093°20'0 0.0
2017-May-22 02:58N 29°49' W 093°20'0 0.0
2017-May-22 02:29N 29°49' W 093°20'0 0.0
2017-May-22 02:00N 29°49' W 093°20'0 0.0
2017-May-22 01:31N 29°49' W 093°20'0 0.0
2017-May-22 00:57N 29°49' W 093°20'0 0.0
2017-May-22 00:31N 29°49' W 093°20'0 0.0
2017-May-22 00:00N 29°49' W 093°20'0 0.0
2017-May-21 23:28N 29°49' W 093°20'0 0.0
2017-May-21 22:59N 29°49' W 093°20'0 0.0
2017-May-21 22:31N 29°49' W 093°20'0 0.0
2017-May-21 21:59N 29°49' W 093°20'0 0.0
2017-May-21 21:06N 29°49' W 093°20'0 0.1
2017-May-21 20:58N 29°49' W 093°20'0 0.0
2017-May-21 20:12N 29°49' W 093°20'0 0.0
2017-May-21 20:00N 29°49' W 093°20'0 0.0
2017-May-21 19:30N 29°49' W 093°20'0 0.0
2017-May-21 18:45N 29°49' W 093°20'0 0.0
2017-May-21 18:30N 29°49' W 093°20'0 0.1
2017-May-21 17:55N 29°49' W 093°20'2 5.3
2017-May-21 17:30N 29°47' W 093°21'  
Track history (hours):
 
Tides and Currents Weather Stations Pressure Air Temp Water Temp Dewpoint Dewpoint Depression Visibility Wind Speed Wind Dir Waves Ship Positions

Odyssea Defender

Owner: ODYSSEA VESSEL, INC, BERWICK, LA. More information available from US FCC via Universal Licensing System and Coast Guard Vessel Documentation Center.

Last reported at 2017-May-29 09:30 UTC. Time now 2017-May-29 09:51 UTC.
Position N 29°49' W 093°20'.

Length 60 m; draft 3.3 m.

Type: Ship. MMSI: 367387930.

Date/timePositionNaut miles runAvg speedWind from/ knotsBaromVisibWave heightAir tempDewpointWater temp
2017-May-29 09:30N 29°49' W 093°20'0 0.7
2017-May-29 08:58N 29°49' W 093°21'3 5.6
2017-May-29 08:30N 29°47' W 093°21'1 2.5
2017-May-29 08:01N 29°48' W 093°21'1 2.8
2017-May-29 07:28N 29°49' W 093°20'0 0.0
2017-May-29 06:59N 29°49' W 093°20'0 0.0
2017-May-29 04:53N 29°49' W 093°20'0 0.0
2017-May-29 04:29N 29°49' W 093°20'0 0.0
2017-May-29 04:00N 29°49' W 093°20'0 0.0
2017-May-29 03:30N 29°49' W 093°20'0 0.0
2017-May-29 03:00N 29°49' W 093°20'0 0.0
2017-May-29 02:30N 29°49' W 093°20'0 0.0
2017-May-29 02:00N 29°49' W 093°20'0 0.0
2017-May-29 01:29N 29°49' W 093°20'0 0.0
2017-May-29 01:01N 29°49' W 093°20'0 0.0
2017-May-29 00:30N 29°49' W 093°20'0 0.0
2017-May-29 00:01N 29°49' W 093°20'0 0.0
2017-May-28 23:30N 29°49' W 093°20'0 0.0
2017-May-28 23:00N 29°49' W 093°20'0 0.2
2017-May-28 22:30N 29°49' W 093°20'0 0.0
2017-May-28 22:01N 29°49' W 093°20'0 0.0
2017-May-28 21:31N 29°49' W 093°20'0 0.0
2017-May-28 21:00N 29°49' W 093°20'0 0.0
2017-May-28 20:30N 29°49' W 093°20'0 0.5
2017-May-28 19:36N 29°49' W 093°21'1 5.3
2017-May-28 19:31N 29°49' W 093°21'3 5.3
2017-May-28 19:00N 29°46' W 093°21'9 0.2
2017-May-27 07:08N 29°37' W 093°23'3 0.1
2017-May-26 10:17N 29°40' W 093°22'0 0.8
2017-May-26 09:52N 29°40' W 093°23'2 4.9
2017-May-26 09:29N 29°38' W 093°23'2 3.9
2017-May-26 08:59N 29°36' W 093°23'2 3.1
2017-May-26 08:21N 29°38' W 093°23'2 3.5
2017-May-26 07:55N 29°39' W 093°22'1 1.8
2017-May-26 07:28N 29°40' W 093°23'3 1.2
2017-May-26 05:13N 29°37' W 093°23'1 1.9
2017-May-26 04:45N 29°38' W 093°23'1 2.7
2017-May-26 04:26N 29°37' W 093°23'0 0.0
2017-May-26 03:43N 29°37' W 093°23'0 0.0
2017-May-26 03:28N 29°37' W 093°23'  
2017-May-23 11:50N 29°45' W 093°21'2 7.2
2017-May-23 11:30N 29°47' W 093°21'2 3.3
2017-May-23 10:57N 29°49' W 093°20'0 0.0
2017-May-23 10:30N 29°49' W 093°20'0 0.0
2017-May-23 10:00N 29°49' W 093°20'0 0.0
2017-May-23 09:30N 29°49' W 093°20'0 0.0
2017-May-23 08:56N 29°49' W 093°20'0 0.0
2017-May-23 08:30N 29°49' W 093°20'0 0.0
2017-May-23 08:00N 29°49' W 093°20'0 0.0
2017-May-23 07:31N 29°49' W 093°20'0 0.0
2017-May-23 07:00N 29°49' W 093°20'0 0.0
2017-May-23 06:30N 29°49' W 093°20'0 0.0
2017-May-23 06:00N 29°49' W 093°20'0 0.0
2017-May-23 05:26N 29°49' W 093°20'0 0.0
2017-May-23 05:00N 29°49' W 093°20'0 0.0
2017-May-23 04:29N 29°49' W 093°20'0 0.0
2017-May-23 03:59N 29°49' W 093°20'0 0.0
2017-May-23 03:31N 29°49' W 093°20'0 0.1
2017-May-23 03:00N 29°49' W 093°20'0 0.0
2017-May-23 02:17N 29°49' W 093°20'0 0.0
2017-May-23 01:56N 29°49' W 093°20'0 0.0
2017-May-23 01:26N 29°49' W 093°20'0 0.0
2017-May-23 00:20N 29°49' W 093°20'0 0.0
2017-May-23 00:00N 29°49' W 093°20'0 0.1
2017-May-22 22:58N 29°49' W 093°20'0 0.0
2017-May-22 21:48N 29°49' W 093°20'0 0.0
2017-May-22 21:30N 29°49' W 093°20'0 0.0
2017-May-22 19:56N 29°49' W 093°20'0 0.0
2017-May-22 19:27N 29°49' W 093°20'0 0.0
2017-May-22 18:46N 29°49' W 093°20'0 0.0
2017-May-22 18:29N 29°49' W 093°20'0 0.0
2017-May-22 17:54N 29°49' W 093°20'0 0.0
2017-May-22 17:23N 29°49' W 093°20'0 0.0
2017-May-22 16:50N 29°49' W 093°20'0 0.0
2017-May-22 16:31N 29°49' W 093°20'0 0.0
2017-May-22 16:00N 29°49' W 093°20'0 0.0
2017-May-22 15:22N 29°49' W 093°20'0 0.0
2017-May-22 14:53N 29°49' W 093°20'0 0.0
2017-May-22 14:30N 29°49' W 093°20'0 0.0
2017-May-22 13:28N 29°49' W 093°20'0 0.0
2017-May-22 12:57N 29°49' W 093°20'0 0.0
2017-May-22 12:30N 29°49' W 093°20'0 0.0
2017-May-22 12:00N 29°49' W 093°20'0 0.0
2017-May-22 11:27N 29°49' W 093°20'0 0.0
2017-May-22 11:00N 29°49' W 093°20'0 0.0
2017-May-22 10:25N 29°49' W 093°20'0 0.0
2017-May-22 07:05N 29°49' W 093°20'0 0.0
2017-May-22 07:00N 29°49' W 093°20'0 0.0
2017-May-22 06:30N 29°49' W 093°20'0 0.0
2017-May-22 05:59N 29°49' W 093°20'0 0.0
2017-May-22 05:20N 29°49' W 093°20'0 0.0
2017-May-22 04:59N 29°49' W 093°20'0 0.0
2017-May-22 04:28N 29°49' W 093°20'0 0.0
2017-May-22 04:00N 29°49' W 093°20'0 0.0
2017-May-22 03:25N 29°49' W 093°20'0 0.0
2017-May-22 02:58N 29°49' W 093°20'0 0.0
2017-May-22 02:29N 29°49' W 093°20'0 0.0
2017-May-22 02:00N 29°49' W 093°20'0 0.0
2017-May-22 01:31N 29°49' W 093°20'0 0.0
2017-May-22 00:57N 29°49' W 093°20'0 0.0
2017-May-22 00:31N 29°49' W 093°20'0 0.0
2017-May-22 00:00N 29°49' W 093°20'0 0.0
2017-May-21 23:28N 29°49' W 093°20'0 0.0
2017-May-21 22:59N 29°49' W 093°20'0 0.0
2017-May-21 22:31N 29°49' W 093°20'0 0.0
2017-May-21 21:59N 29°49' W 093°20'0 0.0
2017-May-21 21:06N 29°49' W 093°20'0 0.1
2017-May-21 20:58N 29°49' W 093°20'0 0.0
2017-May-21 20:12N 29°49' W 093°20'0 0.0
2017-May-21 20:00N 29°49' W 093°20'0 0.0
2017-May-21 19:30N 29°49' W 093°20'0 0.0
2017-May-21 18:45N 29°49' W 093°20'0 0.0
2017-May-21 18:30N 29°49' W 093°20'0 0.1
2017-May-21 17:55N 29°49' W 093°20'2 5.3
2017-May-21 17:30N 29°47' W 093°21'  

Dump ship's entire track history